Time;durP1;ratioP1;P1;durP2;ratioP2;P2;SDS_P1;SDS_P2;PMS_P1;PMS_P2;Temp;Humidity;BMP_temperature;BMP_pressure;BME280_temperature;BME280_humidity;BME280_pressure;Samples;Min_cycle;Max_cycle;Signal;HPM_P1;HPM_P2
2023/10/11 00:02:58;;;;;;;2.22;1.95;;;11.20;91.50;;;;;;5091662;28;20172;-60
2023/10/11 00:05:36;;;;;;;0.80;0.60;;;11.10;91.70;;;;;;5091629;28;20184;-60
2023/10/11 00:08:02;;;;;;;1.88;1.77;;;11.10;91.30;;;;;;5091552;28;20184;-60
2023/10/11 00:10:28;;;;;;;4.20;1.27;;;11.10;91.90;;;;;;5091780;28;20169;-60
2023/10/11 00:12:58;;;;;;;0.82;0.70;;;11.00;92.20;;;;;;5091678;28;20173;-60
2023/10/11 00:15:29;;;;;;;1.77;1.67;;;11.00;92.60;;;;;;5091605;28;20172;-60
2023/10/11 00:17:57;;;;;;;0.85;0.57;;;11.10;92.80;;;;;;5090554;28;20522;-60
2023/10/11 00:20:34;;;;;;;2.65;1.00;;;11.10;93.00;;;;;;5091548;28;20179;-59
2023/10/11 00:23:00;;;;;;;1.85;1.08;;;11.10;92.90;;;;;;5091413;28;20236;-60
2023/10/11 00:25:25;;;;;;;0.63;0.63;;;11.10;93.00;;;;;;5091471;28;20238;-60
2023/10/11 00:27:58;;;;;;;1.00;0.70;;;11.00;93.10;;;;;;5091150;28;20646;-60
2023/10/11 00:30:30;;;;;;;1.55;1.45;;;11.10;92.40;;;;;;5091955;28;20407;-60
2023/10/11 00:32:56;;;;;;;6.50;0.90;;;11.20;91.70;;;;;;5091525;28;20177;-60
2023/10/11 00:35:26;;;;;;;1.75;1.50;;;11.20;91.30;;;;;;5091733;28;20717;-60
2023/10/11 00:37:53;;;;;;;1.48;1.33;;;11.20;91.70;;;;;;5091018;28;20635;-60
2023/10/11 00:40:27;;;;;;;0.77;0.77;;;11.20;92.40;;;;;;5091403;28;20555;-60
2023/10/11 00:42:53;;;;;;;5.40;1.30;;;11.20;92.30;;;;;;5091508;28;20598;-60
2023/10/11 00:45:22;;;;;;;9.90;1.30;;;11.10;92.10;;;;;;5091421;28;20180;-60
2023/10/11 00:47:51;;;;;;;0.52;0.50;;;11.20;92.30;;;;;;5090949;28;20227;-59
2023/10/11 00:50:17;;;;;;;1.50;1.10;;;11.20;92.10;;;;;;5091325;28;20180;-60
2023/10/11 00:52:45;;;;;;;0.98;0.82;;;11.20;92.20;;;;;;5091206;28;20172;-60
2023/10/11 00:55:17;;;;;;;2.58;0.93;;;11.10;92.80;;;;;;5091090;28;20638;-60
2023/10/11 00:57:45;;;;;;;1.42;1.20;;;11.10;92.70;;;;;;5091089;28;20180;-60
2023/10/11 01:00:14;;;;;;;8.63;1.55;;;11.20;93.00;;;;;;5091176;28;20173;-60
2023/10/11 01:02:39;;;;;;;1.13;1.13;;;11.20;93.10;;;;;;5091022;28;20694;-60
2023/10/11 01:05:06;;;;;;;1.37;1.27;;;11.20;93.20;;;;;;5091111;28;20257;-60
2023/10/11 01:07:32;;;;;;;1.60;1.50;;;11.20;93.30;;;;;;5090735;28;20608;-60
2023/10/11 01:09:58;;;;;;;1.60;1.30;;;11.20;93.40;;;;;;5090864;28;20357;-60
2023/10/11 01:12:23;;;;;;;1.63;1.53;;;11.20;93.40;;;;;;5091422;28;20256;-59
2023/10/11 01:14:58;;;;;;;7.53;1.33;;;11.20;93.60;;;;;;5091058;28;20200;-60
2023/10/11 01:17:31;;;;;;;0.80;0.80;;;11.30;93.50;;;;;;5090573;28;20646;-60
2023/10/11 01:20:00;;;;;;;2.50;1.70;;;11.30;93.90;;;;;;5091012;28;20228;-60
2023/10/11 01:22:28;;;;;;;1.05;0.95;;;11.30;94.10;;;;;;5090834;28;20410;-58
2023/10/11 01:24:55;;;;;;;0.90;0.90;;;11.30;94.10;;;;;;5090792;28;20204;-60
2023/10/11 01:27:30;;;;;;;1.75;1.08;;;11.30;94.20;;;;;;5090718;28;20173;-60
2023/10/11 01:29:57;;;;;;;2.00;1.90;;;11.30;94.50;;;;;;5094274;28;20211;-60
2023/10/11 01:32:23;;;;;;;3.83;1.90;;;11.30;94.50;;;;;;5094481;28;20407;-60
2023/10/11 01:34:49;;;;;;;1.73;1.60;;;11.30;94.70;;;;;;5094325;28;20413;-59
2023/10/11 01:37:14;;;;;;;1.60;1.50;;;11.30;94.70;;;;;;5094132;28;20402;-59
2023/10/11 01:39:40;;;;;;;1.30;1.20;;;11.30;95.00;;;;;;5094364;28;20283;-59
2023/10/11 01:42:06;;;;;;;0.93;0.60;;;11.40;95.00;;;;;;5094300;28;20165;-60
2023/10/11 01:44:33;;;;;;;2.28;2.08;;;11.30;94.70;;;;;;5094311;28;20288;-59
2023/10/11 01:47:01;;;;;;;8.70;2.03;;;11.30;94.80;;;;;;5093889;28;20180;-60
2023/10/11 01:49:26;;;;;;;1.60;1.48;;;11.40;95.20;;;;;;5094011;28;20433;-60
2023/10/11 01:51:54;;;;;;;2.40;1.60;;;11.30;95.30;;;;;;5094026;28;20630;-60
2023/10/11 01:54:22;;;;;;;4.00;1.60;;;11.30;95.60;;;;;;5094095;28;20650;-60
2023/10/11 01:56:48;;;;;;;2.28;2.08;;;11.40;95.40;;;;;;5093833;28;20189;-60
2023/10/11 01:59:15;;;;;;;3.00;1.23;;;11.40;95.40;;;;;;5093966;28;20230;-59
2023/10/11 02:01:43;;;;;;;2.65;1.23;;;11.50;95.50;;;;;;5093950;28;20985;-60
2023/10/11 02:04:11;;;;;;;2.15;1.77;;;11.50;95.60;;;;;;5093846;28;20312;-60
2023/10/11 02:06:38;;;;;;;1.10;1.10;;;11.50;95.90;;;;;;5093685;28;20183;-59
2023/10/11 02:09:04;;;;;;;1.50;1.37;;;11.50;95.70;;;;;;5094100;28;20212;-60
2023/10/11 02:11:30;;;;;;;3.45;1.85;;;11.50;95.80;;;;;;5093780;28;20772;-60
2023/10/11 02:13:57;;;;;;;4.93;1.63;;;11.40;96.10;;;;;;5093796;28;20180;-60
2023/10/11 02:16:24;;;;;;;2.95;1.00;;;11.40;96.30;;;;;;5093476;28;20192;-57
2023/10/11 02:18:58;;;;;;;4.00;1.75;;;11.50;96.30;;;;;;5093375;28;20197;-60
2023/10/11 02:21:24;;;;;;;0.73;0.73;;;11.60;96.20;;;;;;5093606;28;20175;-60
2023/10/11 02:23:50;;;;;;;1.35;1.25;;;11.60;96.30;;;;;;5093469;28;20201;-60
2023/10/11 02:26:16;;;;;;;6.80;2.40;;;11.60;96.20;;;;;;5093669;28;20177;-60
2023/10/11 02:28:45;;;;;;;2.07;1.93;;;11.60;96.40;;;;;;5092941;28;20208;-60
2023/10/11 02:31:19;;;;;;;1.90;0.93;;;11.50;96.70;;;;;;5092061;28;20414;-60
2023/10/11 02:33:45;;;;;;;2.50;2.30;;;11.50;96.90;;;;;;5093498;28;20880;-60
2023/10/11 02:36:18;;;;;;;3.47;2.23;;;11.50;97.20;;;;;;5093150;28;20497;-60
2023/10/11 02:38:49;;;;;;;1.83;1.60;;;11.60;97.50;;;;;;5093024;28;20435;-60
2023/10/11 02:41:20;;;;;;;11.93;2.30;;;11.60;98.00;;;;;;5092398;28;20425;-60
2023/10/11 02:43:49;;;;;;;0.97;0.90;;;11.60;98.10;;;;;;5093374;28;20486;-60
2023/10/11 02:46:23;;;;;;;1.13;1.13;;;11.60;97.80;;;;;;5093009;28;20414;-59
2023/10/11 02:48:52;;;;;;;1.30;1.20;;;11.70;97.80;;;;;;5092894;28;20496;-60
2023/10/11 02:51:24;;;;;;;1.50;1.03;;;11.70;97.80;;;;;;5092972;28;20407;-60
2023/10/11 02:53:52;;;;;;;11.97;2.57;;;11.70;98.00;;;;;;5092935;28;20403;-60
2023/10/11 02:56:18;;;;;;;2.30;2.10;;;11.70;98.10;;;;;;5092907;28;20414;-60
2023/10/11 02:58:44;;;;;;;2.53;1.53;;;11.70;97.90;;;;;;5092660;28;20924;-60
2023/10/11 03:01:17;;;;;;;3.20;1.80;;;11.70;98.10;;;;;;5092857;28;20449;-60
2023/10/11 03:03:43;;;;;;;1.70;1.52;;;11.70;98.20;;;;;;5092583;28;20935;-60
2023/10/11 03:06:09;;;;;;;5.68;1.80;;;11.60;98.40;;;;;;5092570;28;20187;-60
2023/10/11 03:08:35;;;;;;;0.80;0.80;;;11.60;98.70;;;;;;5141687;22;20252;-61
2023/10/11 03:11:04;;;;;;;1.70;1.60;;;11.60;98.90;;;;;;5092187;28;20420;-60
2023/10/11 03:13:31;;;;;;;0.97;0.83;;;11.70;98.90;;;;;;5092546;28;20407;-60
2023/10/11 03:15:59;;;;;;;2.17;1.33;;;11.70;98.70;;;;;;5092395;28;20410;-60
2023/10/11 03:18:32;;;;;;;2.30;2.10;;;11.70;98.70;;;;;;5092066;28;20571;-60
2023/10/11 03:21:09;;;;;;;2.07;1.97;;;11.60;99.00;;;;;;5092389;28;20495;-60
2023/10/11 03:23:44;;;;;;;1.07;0.67;;;11.60;99.30;;;;;;5092312;28;20449;-60
2023/10/11 03:26:31;;;;;;;1.50;1.25;;;11.60;99.30;;;;;;5092258;28;20399;-60
2023/10/11 03:29:04;;;;;;;1.67;1.27;;;11.60;99.30;;;;;;5092654;28;20232;-60
2023/10/11 03:31:34;;;;;;;1.15;1.10;;;11.70;99.30;;;;;;5092403;28;20541;-60
2023/10/11 03:34:11;;;;;;;2.42;1.63;;;11.70;99.40;;;;;;5092086;28;20173;-60
2023/10/11 03:36:49;;;;;;;1.92;1.60;;;11.60;99.50;;;;;;5091819;28;20297;-60
2023/10/11 03:39:26;;;;;;;6.87;3.30;;;11.60;99.80;;;;;;5092083;28;20192;-60
2023/10/11 03:41:59;;;;;;;3.55;1.33;;;11.70;99.80;;;;;;5092022;28;20821;-60
2023/10/11 03:44:28;;;;;;;1.30;1.20;;;11.60;99.80;;;;;;5092239;28;20208;-61
2023/10/11 03:46:54;;;;;;;2.25;0.90;;;11.60;99.90;;;;;;5091694;28;20161;-61
2023/10/11 03:51:49;;;;;;;2.65;0.85;;;11.60;99.90;;;;;;5091923;28;20198;-61
2023/10/11 03:54:22;;;;;;;2.00;1.37;;;11.60;99.90;;;;;;5091524;28;20200;-61
2023/10/11 03:56:55;;;;;;;0.93;0.93;;;11.60;99.90;;;;;;5091756;28;20829;-61
2023/10/11 03:59:25;;;;;;;1.27;0.73;;;11.60;99.90;;;;;;5091831;28;20220;-61
2023/10/11 04:01:54;;;;;;;1.20;1.10;;;11.60;99.90;;;;;;5091850;28;20268;-61
2023/10/11 04:04:21;;;;;;;2.37;2.27;;;11.60;99.90;;;;;;5091620;28;20642;-61
2023/10/11 04:07:04;;;;;;;1.20;0.95;;;11.60;99.90;;;;;;5091326;28;20442;-60
2023/10/11 04:09:37;;;;;;;3.70;0.80;;;11.60;99.90;;;;;;5091624;28;20619;-61
2023/10/11 04:12:10;;;;;;;2.03;1.45;;;11.50;99.90;;;;;;5091839;28;20169;-61
2023/10/11 04:14:41;;;;;;;3.78;1.45;;;11.60;99.90;;;;;;5091665;28;20191;-61
2023/10/11 04:17:38;;;;;;;16.67;1.70;;;11.60;99.90;;;;;;5091292;28;20214;-60
2023/10/11 04:20:29;;;;;;;3.07;2.60;;;11.50;99.90;;;;;;5090936;28;20449;-61
2023/10/11 04:23:09;;;;;;;2.27;2.00;;;11.50;99.90;;;;;;5091433;28;20892;-61
2023/10/11 04:25:37;;;;;;;3.67;1.27;;;11.50;99.90;;;;;;5091466;28;20411;-60
2023/10/11 04:28:05;;;;;;;1.90;1.27;;;11.50;99.90;;;;;;5091258;28;20429;-60
2023/10/11 04:30:44;;;;;;;4.53;1.73;;;11.50;99.90;;;;;;5091324;28;20460;-60
2023/10/11 04:33:20;;;;;;;1.42;1.33;;;11.50;99.90;;;;;;5091417;28;20410;-60
2023/10/11 04:35:57;;;;;;;1.23;1.23;;;11.50;99.90;;;;;;5091397;28;20274;-61
2023/10/11 04:38:23;;;;;;;1.00;1.00;;;11.50;99.90;;;;;;5091075;28;20841;-60
2023/10/11 04:40:51;;;;;;;1.23;1.13;;;11.50;99.90;;;;;;5091367;28;20403;-61
2023/10/11 04:43:23;;;;;;;2.22;2.03;;;11.50;99.90;;;;;;5091374;28;20287;-61
2023/10/11 04:45:51;;;;;;;2.53;1.90;;;11.40;99.90;;;;;;5091184;28;20196;-61
2023/10/11 04:48:29;;;;;;;3.10;1.77;;;11.50;99.90;;;;;;5091221;28;20426;-61
2023/10/11 04:51:04;;;;;;;7.90;2.50;;;11.60;99.90;;;;;;5091541;28;20173;-61
2023/10/11 04:54:13;;;;;;;1.20;1.20;;;11.60;99.90;;;;;;5091434;28;20784;-61
2023/10/11 05:04:26;;;;;;;1.17;0.83;;;11.60;99.90;;;;;;5093886;28;20967;-60
2023/10/11 05:06:53;;;;;;;4.23;1.87;;;11.50;99.90;;;;;;5094524;28;20217;-60
2023/10/11 05:11:58;;;;;;;4.77;2.07;;;11.50;99.90;;;;;;5094906;28;20402;-61
2023/10/11 05:14:30;;;;;;;2.10;0.90;;;11.40;99.90;;;;;;5094867;28;20415;-60
2023/10/11 05:17:58;;;;;;;1.50;1.20;;;11.50;99.90;;;;;;5094488;28;20402;-60
2023/10/11 05:20:20;;;;;;;1.40;1.30;;;11.50;99.90;;;;;;5080221;28;20227;-60
2023/10/11 05:25:16;;;;;;;3.13;2.83;;;11.40;99.90;;;;;;5094591;28;20591;-60
2023/10/11 05:27:49;;;;;;;2.80;2.40;;;11.40;99.90;;;;;;5094475;28;20646;-61
2023/10/11 05:52:07;;;;;;;2.20;2.10;;;11.40;99.90;;;;;;5094227;28;20398;-60
2023/10/11 05:54:34;;;;;;;1.23;0.90;;;11.40;99.90;;;;;;5094245;28;20468;-60
2023/10/11 05:57:06;;;;;;;1.47;1.13;;;11.50;99.90;;;;;;5093783;28;20407;-61
2023/10/11 05:59:32;;;;;;;2.20;1.33;;;11.50;99.90;;;;;;5093986;28;20431;-60
2023/10/11 06:01:59;;;;;;;1.80;1.20;;;11.50;99.90;;;;;;5093946;28;20505;-60
2023/10/11 06:04:25;;;;;;;5.38;1.27;;;11.60;99.90;;;;;;5094034;28;20515;-60
2023/10/11 06:06:57;;;;;;;2.40;2.30;;;11.60;99.90;;;;;;5093677;28;20595;-61
2023/10/11 06:09:27;;;;;;;2.20;1.17;;;11.60;99.90;;;;;;5094082;28;20964;-60
2023/10/11 06:11:53;;;;;;;2.03;1.48;;;11.60;99.90;;;;;;5094028;28;20869;-61
2023/10/11 06:14:20;;;;;;;5.30;1.77;;;11.60;99.90;;;;;;5093236;28;20185;-61
2023/10/11 06:16:57;;;;;;;7.03;1.77;;;11.60;99.90;;;;;;5093107;28;20173;-60
2023/10/11 06:19:27;;;;;;;3.20;2.42;;;11.60;99.90;;;;;;5093612;28;20433;-61
2023/10/11 06:22:09;;;;;;;2.37;2.17;;;11.80;99.90;;;;;;5093708;28;20176;-61
2023/10/11 06:24:39;;;;;;;3.57;2.13;;;11.90;99.90;;;;;;5093431;28;20959;-61
2023/10/11 06:29:45;;;;;;;1.33;0.97;;;12.00;99.90;;;;;;5093102;28;20755;-61
2023/10/11 06:32:12;;;;;;;1.63;1.37;;;12.00;99.90;;;;;;5093294;28;20494;-61
2023/10/11 06:34:38;;;;;;;1.90;1.77;;;12.00;99.90;;;;;;5093020;28;20407;-61
2023/10/11 06:37:07;;;;;;;2.97;1.63;;;12.10;99.90;;;;;;5092633;28;20409;-60
2023/10/11 06:40:07;;;;;;;2.37;1.90;;;12.20;99.90;;;;;;5093038;28;20429;-59
2023/10/11 06:42:24;;;;;;;0.80;0.80;;;12.20;99.90;;;;;;5093071;28;20422;-60
2023/10/11 06:44:57;;;;;;;2.50;1.40;;;12.20;99.90;;;;;;5092798;28;20454;-60
2023/10/11 06:47:24;;;;;;;1.30;1.20;;;12.30;99.90;;;;;;5092757;28;20172;-61
2023/10/11 06:49:54;;;;;;;1.10;1.00;;;12.30;99.90;;;;;;5093376;28;20452;-61
2023/10/11 06:52:26;;;;;;;0.97;0.97;;;12.30;99.90;;;;;;5093058;28;20961;-60
2023/10/11 06:55:28;;;;;;;2.70;1.10;;;12.40;99.90;;;;;;5093104;28;20752;-60
2023/10/11 06:57:54;;;;;;;1.47;1.37;;;12.50;99.90;;;;;;5088228;28;20459;-60
2023/10/11 07:00:28;;;;;;;1.30;1.23;;;12.80;99.90;;;;;;5091996;28;20519;-62
2023/10/11 07:03:06;;;;;;;2.23;2.10;;;14.00;99.90;;;;;;5091363;28;20441;-61
2023/10/11 07:05:40;;;;;;;3.60;1.40;;;15.80;99.90;;;;;;5092874;28;20423;-61
2023/10/11 07:08:08;;;;;;;4.83;1.53;;;18.00;99.50;;;;;;5092047;28;20412;-61
2023/10/11 07:10:34;;;;;;;2.10;1.93;;;19.90;95.60;;;;;;5092389;28;20511;-62
2023/10/11 07:13:05;;;;;;;2.60;1.50;;;21.50;92.90;;;;;;5092369;28;20419;-62
2023/10/11 07:15:45;;;;;;;4.63;1.47;;;22.60;89.40;;;;;;5092082;28;20505;-62
2023/10/11 07:18:43;;;;;;;2.47;1.10;;;23.20;81.80;;;;;;5092019;28;20407;-62
2023/10/11 07:21:09;;;;;;;4.20;2.13;;;23.50;76.80;;;;;;5092073;28;20502;-62
2023/10/11 07:23:55;;;;;;;2.00;1.80;;;24.10;73.60;;;;;;5092479;28;20455;-62
2023/10/11 07:29:00;;;;;;;5.23;1.97;;;25.50;69.50;;;;;;5092225;28;20784;-61
2023/10/11 07:32:02;;;;;;;3.67;1.67;;;26.20;65.20;;;;;;5092765;28;20411;-62
2023/10/11 07:34:21;;;;;;;3.20;2.10;;;27.00;62.80;;;;;;5088000;28;20419;-63
2023/10/11 07:36:50;;;;;;;3.77;2.20;;;27.90;59.30;;;;;;5091627;28;20406;-62
2023/10/11 07:41:52;;;;;;;4.33;3.10;;;28.40;56.70;;;;;;5091820;28;20776;-62
2023/10/11 07:44:18;;;;;;;2.20;1.60;;;28.00;56.20;;;;;;5091553;28;20450;-62
2023/10/11 07:46:48;;;;;;;1.70;1.50;;;27.20;56.50;;;;;;5091679;28;20795;-62
2023/10/11 07:49:22;;;;;;;2.77;2.30;;;26.40;57.50;;;;;;5091993;28;20483;-62
2023/10/11 07:51:53;;;;;;;2.80;1.93;;;25.90;58.60;;;;;;5091849;28;20407;-62
2023/10/11 07:54:21;;;;;;;2.00;1.53;;;25.80;59.60;;;;;;5092114;28;20429;-62
2023/10/11 07:56:52;;;;;;;4.23;2.03;;;26.40;59.10;;;;;;5091455;28;20403;-63
2023/10/11 07:59:21;;;;;;;5.50;2.30;;;27.10;58.70;;;;;;5091855;28;20431;-63
2023/10/11 08:01:47;;;;;;;2.73;1.87;;;27.80;57.60;;;;;;5091699;28;20744;-63
2023/10/11 08:04:21;;;;;;;9.53;2.60;;;28.50;56.50;;;;;;5091704;28;20499;-63
2023/10/11 08:06:50;;;;;;;3.27;1.73;;;29.50;54.50;;;;;;5091677;28;20364;-62
2023/10/11 08:09:21;;;;;;;3.30;1.67;;;30.70;52.80;;;;;;5091515;28;20446;-63
2023/10/11 08:11:52;;;;;;;2.67;1.83;;;31.80;50.80;;;;;;5091690;28;20403;-63
2023/10/11 08:14:22;;;;;;;1.40;1.30;;;32.90;48.20;;;;;;5091884;28;20784;-63
2023/10/11 08:16:51;;;;;;;3.40;2.17;;;33.60;46.40;;;;;;5091207;28;20407;-63
2023/10/11 08:19:17;;;;;;;3.30;2.80;;;34.20;44.40;;;;;;5091481;28;20430;-60
2023/10/11 08:21:54;;;;;;;6.67;1.60;;;34.70;42.80;;;;;;5091689;28;20421;-61
2023/10/11 08:24:24;;;;;;;5.73;1.80;;;35.10;42.30;;;;;;5091486;28;20446;-61
2023/10/11 08:26:52;;;;;;;2.30;1.53;;;35.50;41.20;;;;;;5091266;28;20763;-61
2023/10/11 08:29:27;;;;;;;2.17;1.47;;;35.90;40.80;;;;;;5091312;28;20434;-62
2023/10/11 08:31:58;;;;;;;4.07;2.63;;;36.20;40.00;;;;;;5091510;28;20406;-60
2023/10/11 08:34:27;;;;;;;3.90;1.97;;;36.50;40.10;;;;;;5091583;28;20403;-61
2023/10/11 08:36:54;;;;;;;7.97;1.37;;;36.80;39.40;;;;;;5091136;28;20399;-60
2023/10/11 08:39:35;;;;;;;4.87;2.37;;;36.90;38.80;;;;;;5094326;28;20466;-60
2023/10/11 08:42:11;;;;;;;2.23;2.00;;;36.90;38.40;;;;;;5095358;28;20466;-60
2023/10/11 08:44:39;;;;;;;6.03;1.53;;;37.00;38.60;;;;;;5095405;28;20545;-61
2023/10/11 08:47:05;;;;;;;4.20;2.80;;;37.20;38.10;;;;;;5095067;28;20971;-61
2023/10/11 08:49:41;;;;;;;3.30;2.10;;;37.50;37.60;;;;;;5095289;28;20426;-61
2023/10/11 08:52:10;;;;;;;1.73;1.60;;;37.80;37.60;;;;;;5096902;28;20410;-61
2023/10/11 08:54:37;;;;;;;3.27;1.97;;;37.90;38.60;;;;;;5095182;28;20403;-61
2023/10/11 08:57:03;;;;;;;2.87;1.73;;;38.10;36.40;;;;;;5094794;28;20410;-61
2023/10/11 08:59:31;;;;;;;3.60;1.80;;;38.20;36.10;;;;;;5095259;28;20430;-61
2023/10/11 09:02:07;;;;;;;14.60;3.40;;;38.20;36.80;;;;;;5094983;28;20414;-61
2023/10/11 09:04:55;;;;;;;2.80;1.53;;;38.20;36.10;;;;;;5094931;28;20967;-61
2023/10/11 09:07:37;;;;;;;1.10;1.00;;;38.20;35.40;;;;;;5094962;28;20403;-61
2023/10/11 09:10:26;;;;;;;5.47;1.87;;;38.40;35.00;;;;;;5089694;22;20488;-61
2023/10/11 09:12:59;;;;;;;3.17;1.37;;;38.50;34.90;;;;;;5054718;28;20480;-60
2023/10/11 09:15:44;;;;;;;3.10;1.37;;;38.60;34.90;;;;;;5054830;28;20400;-60
2023/10/11 09:18:17;;;;;;;1.77;1.63;;;38.70;33.70;;;;;;5054823;28;20720;-61
2023/10/11 09:20:56;;;;;;;3.33;2.20;;;38.20;33.30;;;;;;5054614;28;20925;-61
2023/10/11 09:23:46;;;;;;;15.87;2.37;;;37.40;34.90;;;;;;5036586;28;20447;-61
2023/10/11 09:26:21;;;;;;;3.03;1.97;;;37.10;34.40;;;;;;5054604;28;20416;-61
2023/10/11 09:28:56;;;;;;;2.90;1.53;;;36.60;34.10;;;;;;5053286;28;20446;-59
2023/10/11 09:31:23;;;;;;;3.43;1.83;;;36.80;34.30;;;;;;5054495;28;20408;-60
2023/10/11 09:33:53;;;;;;;1.33;0.87;;;36.40;32.70;;;;;;5053700;28;21213;-60
2023/10/11 09:36:20;;;;;;;2.40;1.50;;;36.20;34.00;;;;;;5053908;28;20401;-61
2023/10/11 09:38:55;;;;;;;7.00;2.13;;;36.60;32.00;;;;;;5053858;28;20886;-61
2023/10/11 09:41:29;;;;;;;7.93;2.50;;;36.60;30.40;;;;;;5054230;28;20400;-60
2023/10/11 09:43:59;;;;;;;8.10;1.97;;;36.60;30.60;;;;;;5054071;28;20419;-60
2023/10/11 09:46:29;;;;;;;6.43;1.97;;;36.50;31.20;;;;;;5053690;28;20401;-60
2023/10/11 09:48:56;;;;;;;5.80;2.20;;;36.10;30.50;;;;;;5053785;28;20779;-60
2023/10/11 09:51:24;;;;;;;1.73;1.53;;;35.90;31.50;;;;;;5053984;28;20414;-61
2023/10/11 09:53:51;;;;;;;5.13;1.50;;;35.80;31.70;;;;;;5053713;28;20448;-61
2023/10/11 09:56:40;;;;;;;4.90;2.83;;;35.20;30.10;;;;;;5053779;28;20409;-61
2023/10/11 09:59:27;;;;;;;4.00;2.10;;;35.10;31.30;;;;;;5053752;28;20420;-61
2023/10/11 10:02:09;;;;;;;4.70;1.30;;;34.90;31.20;;;;;;5053633;28;20432;-61
2023/10/11 10:04:49;;;;;;;7.60;1.83;;;34.90;31.60;;;;;;5053849;28;20413;-61
2023/10/11 10:07:25;;;;;;;3.63;1.60;;;35.10;31.80;;;;;;5053810;28;20462;-61
2023/10/11 10:10:01;;;;;;;5.97;2.20;;;34.90;31.80;;;;;;5053388;28;20539;-61
2023/10/11 10:12:40;;;;;;;3.70;1.43;;;34.80;31.80;;;;;;5053002;28;20440;-61
2023/10/11 10:15:14;;;;;;;1.60;1.47;;;34.50;32.40;;;;;;5052839;28;21056;-61
2023/10/11 10:18:05;;;;;;;3.17;1.50;;;34.20;32.90;;;;;;5053091;28;20491;-60
2023/10/11 10:20:34;;;;;;;2.40;1.50;;;33.50;32.70;;;;;;5052831;28;20425;-61
2023/10/11 10:23:15;;;;;;;4.30;1.70;;;33.20;33.10;;;;;;5052389;28;20788;-60
2023/10/11 10:25:46;;;;;;;2.50;1.30;;;32.90;34.00;;;;;;5052991;28;20411;-61
2023/10/11 10:28:36;;;;;;;6.33;1.70;;;32.70;32.10;;;;;;5052983;28;20488;-61
2023/10/11 10:31:10;;;;;;;1.90;1.53;;;32.10;33.30;;;;;;5053193;28;20399;-60
2023/10/11 10:33:40;;;;;;;5.30;2.00;;;31.50;33.70;;;;;;5053117;28;20448;-60
2023/10/11 10:36:21;;;;;;;2.03;1.00;;;30.70;36.50;;;;;;5052718;28;20480;-61
2023/10/11 10:38:58;;;;;;;4.80;2.47;;;29.90;36.30;;;;;;5052778;28;20428;-61
2023/10/11 10:41:30;;;;;;;3.53;1.87;;;29.50;37.70;;;;;;5052818;28;20404;-61
2023/10/11 10:44:10;;;;;;;4.70;1.77;;;29.30;37.00;;;;;;5052977;28;20911;-61
2023/10/11 10:46:55;;;;;;;5.03;1.87;;;29.10;37.90;;;;;;5052566;28;20435;-60
2023/10/11 10:49:37;;;;;;;3.60;1.53;;;28.50;39.80;;;;;;5052895;28;20424;-60
2023/10/11 10:52:30;;;;;;;2.90;1.63;;;28.20;40.20;;;;;;5053055;28;20890;-61
2023/10/11 10:55:04;;;;;;;3.43;1.83;;;28.20;40.60;;;;;;5052577;28;20440;-60
2023/10/11 10:57:41;;;;;;;3.10;1.40;;;27.80;40.80;;;;;;5052379;28;20394;-61
2023/10/11 11:00:30;;;;;;;4.90;2.00;;;27.60;42.00;;;;;;5052784;28;20403;-61
2023/10/11 11:02:56;;;;;;;2.40;1.90;;;27.40;42.50;;;;;;5052506;28;20774;-62
2023/10/11 11:05:29;;;;;;;1.83;1.57;;;27.10;45.80;;;;;;5049569;28;20399;-61
2023/10/11 11:08:15;;;;;;;2.60;1.87;;;26.90;44.70;;;;;;5034210;28;20268;-62
2023/10/11 11:10:54;;;;;;;6.43;2.03;;;26.80;45.60;;;;;;5052218;28;20948;-62
2023/10/11 11:13:25;;;;;;;1.60;1.20;;;26.60;45.00;;;;;;5051725;28;20479;-62
2023/10/11 11:15:58;;;;;;;4.00;1.70;;;26.60;45.60;;;;;;5051390;28;20384;-66
2023/10/11 11:18:34;;;;;;;4.73;2.10;;;26.60;47.20;;;;;;5052262;28;20398;-61
2023/10/11 11:21:17;;;;;;;1.80;1.10;;;26.60;49.60;;;;;;5052213;28;20772;-60
2023/10/11 11:23:45;;;;;;;3.00;2.07;;;26.40;47.10;;;;;;5051096;28;20451;-60
2023/10/11 11:26:21;;;;;;;4.10;1.70;;;26.40;48.10;;;;;;5051940;28;20383;-60
2023/10/11 11:28:48;;;;;;;1.97;1.67;;;26.30;46.80;;;;;;5051661;28;20416;-60
2023/10/11 11:31:13;;;;;;;2.13;1.93;;;26.20;52.00;;;;;;5052042;28;20375;-61
2023/10/11 11:33:49;;;;;;;2.10;1.83;;;26.00;53.20;;;;;;5051934;28;20466;-60
2023/10/11 11:36:40;;;;;;;1.80;1.13;;;26.00;47.90;;;;;;5052035;28;20232;-60
2023/10/11 11:42:08;;;;;;;4.80;1.90;;;25.60;45.80;;;;;;5046967;28;20413;-60
2023/10/11 11:44:33;;;;;;;3.37;1.77;;;25.60;46.50;;;;;;5051984;28;20433;-63
2023/10/11 11:47:05;;;;;;;3.80;1.37;;;25.70;45.90;;;;;;5051480;28;20984;-61
2023/10/11 11:49:33;;;;;;;1.80;1.37;;;25.60;46.00;;;;;;5051671;28;20400;-60
2023/10/11 11:51:59;;;;;;;2.30;1.53;;;25.50;50.50;;;;;;5051714;28;20383;-61
2023/10/11 11:54:31;;;;;;;3.20;1.50;;;25.50;50.80;;;;;;5051589;28;20517;-60
2023/10/11 11:56:57;;;;;;;1.40;1.30;;;25.40;52.20;;;;;;5051383;28;20379;-60
2023/10/11 11:59:29;;;;;;;1.97;1.80;;;25.30;52.50;;;;;;5051545;28;20794;-61
2023/10/11 12:01:59;;;;;;;1.90;1.37;;;25.20;48.00;;;;;;5051367;28;20410;-61
2023/10/11 12:04:29;;;;;;;1.73;1.60;;;25.10;53.40;;;;;;5051609;28;20391;-61
2023/10/11 12:07:04;;;;;;;4.03;3.27;;;25.00;47.80;;;;;;5050868;28;20383;-61
2023/10/11 12:09:34;;;;;;;2.23;1.50;;;25.00;47.50;;;;;;5051121;28;20433;-60
2023/10/11 12:12:05;;;;;;;4.63;2.20;;;25.00;47.90;;;;;;5051145;28;20554;-61
2023/10/11 12:14:37;;;;;;;2.30;1.90;;;25.00;48.40;;;;;;5050800;28;20443;-61
2023/10/11 12:17:12;;;;;;;3.37;2.53;;;25.10;50.80;;;;;;5050905;28;20409;-61
2023/10/11 12:19:38;;;;;;;2.17;1.50;;;24.90;51.70;;;;;;5051022;28;20420;-60
2023/10/11 12:22:05;;;;;;;2.20;1.70;;;24.80;51.30;;;;;;5050889;28;20852;-61
2023/10/11 12:24:31;;;;;;;1.37;1.27;;;24.70;55.50;;;;;;5051070;28;20404;-60
2023/10/11 12:27:00;;;;;;;1.37;1.00;;;24.40;56.40;;;;;;5050490;28;20407;-61
2023/10/11 12:29:28;;;;;;;8.83;1.90;;;24.10;50.50;;;;;;5050718;28;20616;-60
2023/10/11 12:31:54;;;;;;;3.17;1.00;;;24.20;52.40;;;;;;5051291;28;20814;-61
2023/10/11 12:34:24;;;;;;;3.33;1.83;;;24.10;50.00;;;;;;5051056;28;20452;-60
2023/10/11 12:36:52;;;;;;;1.77;1.50;;;24.00;48.00;;;;;;5051167;28;20910;-61
2023/10/11 12:39:22;;;;;;;2.13;1.20;;;24.00;51.90;;;;;;5050998;28;20442;-61
2023/10/11 12:41:51;;;;;;;2.83;1.23;;;23.90;52.70;;;;;;5050921;28;20412;-61
2023/10/11 12:44:17;;;;;;;15.23;2.70;;;23.80;51.00;;;;;;5050915;28;20439;-61
2023/10/11 12:46:43;;;;;;;4.60;1.67;;;23.60;54.20;;;;;;5050761;28;20431;-61
2023/10/11 12:49:15;;;;;;;3.77;3.47;;;23.50;48.70;;;;;;5050192;28;20520;-61
2023/10/11 12:51:44;;;;;;;2.10;1.40;;;23.30;51.20;;;;;;5050389;28;20474;-60
2023/10/11 12:54:14;;;;;;;3.23;2.03;;;23.10;47.80;;;;;;5050539;28;20456;-61
2023/10/11 12:56:42;;;;;;;2.20;1.57;;;23.00;52.60;;;;;;5050687;28;20397;-60
2023/10/11 12:59:15;;;;;;;1.90;1.80;;;22.90;52.90;;;;;;5050984;28;20429;-61
2023/10/11 13:01:52;;;;;;;3.33;2.23;;;22.90;53.60;;;;;;5051017;28;20428;-60
2023/10/11 13:04:23;;;;;;;1.50;0.90;;;22.80;52.00;;;;;;5050880;28;20401;-60
2023/10/11 13:06:50;;;;;;;1.73;1.40;;;22.70;54.90;;;;;;5050541;28;20404;-61
2023/10/11 13:09:27;;;;;;;1.73;1.43;;;22.40;55.00;;;;;;5050793;28;20459;-61
2023/10/11 13:11:56;;;;;;;3.40;1.77;;;22.30;54.20;;;;;;5050781;28;20394;-61
2023/10/11 13:14:22;;;;;;;1.07;0.97;;;22.20;53.70;;;;;;5050731;28;20454;-60
2023/10/11 13:16:54;;;;;;;2.70;1.60;;;22.00;57.40;;;;;;5050433;28;20408;-60
2023/10/11 13:19:24;;;;;;;2.80;1.30;;;21.80;56.30;;;;;;5050773;28;20737;-61
2023/10/11 13:21:54;;;;;;;6.67;1.87;;;21.80;54.60;;;;;;5050764;28;20402;-60
2023/10/11 13:24:22;;;;;;;1.20;1.10;;;21.70;54.90;;;;;;5051982;28;20415;-60
2023/10/11 13:26:49;;;;;;;1.67;1.53;;;21.60;56.60;;;;;;5054134;28;20785;-60
2023/10/11 13:29:18;;;;;;;1.70;1.13;;;21.50;53.60;;;;;;5054269;28;20434;-60
2023/10/11 13:31:46;;;;;;;1.90;1.70;;;21.40;56.90;;;;;;5054353;28;20403;-61
2023/10/11 13:34:14;;;;;;;1.27;1.17;;;21.40;53.90;;;;;;5054250;28;21027;-60
2023/10/11 13:36:40;;;;;;;4.40;2.00;;;21.40;54.60;;;;;;5053875;28;20901;-60
2023/10/11 13:39:25;;;;;;;4.13;1.40;;;21.40;55.30;;;;;;5054219;28;20427;-60
2023/10/11 13:42:04;;;;;;;1.93;1.13;;;21.30;57.40;;;;;;5054085;28;20888;-61
2023/10/11 13:44:32;;;;;;;1.30;1.20;;;21.00;58.70;;;;;;5054063;28;20410;-61
2023/10/11 13:46:59;;;;;;;2.70;1.63;;;20.80;59.00;;;;;;5053631;28;20552;-60
2023/10/11 13:49:26;;;;;;;3.23;1.27;;;20.70;57.90;;;;;;5054042;28;20798;-60
2023/10/11 13:51:59;;;;;;;4.47;1.37;;;20.60;58.10;;;;;;5053863;28;20505;-61
2023/10/11 13:57:00;;;;;;;2.57;1.80;;;20.60;55.80;;;;;;5053614;28;20787;-61
2023/10/11 13:59:36;;;;;;;5.13;1.53;;;20.70;57.10;;;;;;5053703;28;20477;-59
2023/10/11 14:04:56;;;;;;;2.97;1.20;;;20.70;59.10;;;;;;5053672;28;20411;-61